createdAt,value
2023-05-11T00:01:25.844Z,2.85
2023-05-11T00:03:54.428Z,2.47
2023-05-11T00:06:24.187Z,3.20
2023-05-11T00:08:52.585Z,2.90
2023-05-11T00:11:21.343Z,2.95
2023-05-11T00:13:49.742Z,2.75
2023-05-11T00:16:18.044Z,3.22
2023-05-11T00:18:49.317Z,2.58
2023-05-11T00:21:17.523Z,2.78
2023-05-11T00:23:47.147Z,2.85
2023-05-11T00:26:15.182Z,3.25
2023-05-11T00:28:43.341Z,2.97
2023-05-11T00:31:11.506Z,3.53
2023-05-11T00:33:39.874Z,3.03
2023-05-11T00:36:09.472Z,3.10
2023-05-11T00:38:41.422Z,3.25
2023-05-11T00:41:11.135Z,2.97
2023-05-11T00:43:39.615Z,3.45
2023-05-11T00:46:08.480Z,3.30
2023-05-11T00:48:37.621Z,3.15
2023-05-11T00:51:07.099Z,3.00
2023-05-11T00:53:35.533Z,3.17
2023-05-11T00:56:05.171Z,3.50
2023-05-11T00:58:34.973Z,3.00
2023-05-11T01:01:03.458Z,3.22
2023-05-11T01:03:31.909Z,3.53
2023-05-11T01:06:09.633Z,3.28
2023-05-11T01:08:43.626Z,3.00
2023-05-11T01:11:19.417Z,3.13
2023-05-11T01:13:54.703Z,3.38
2023-05-11T01:16:25.292Z,3.22
2023-05-11T01:18:58.075Z,4.25
2023-05-11T01:21:31.534Z,3.47
2023-05-11T01:24:22.726Z,3.25
2023-05-11T01:27:01.576Z,3.40
2023-05-11T01:30:06.887Z,3.53
2023-05-11T01:32:41.824Z,3.28
2023-05-11T01:35:13.616Z,3.83
2023-05-11T01:37:47.209Z,3.17
2023-05-11T01:40:18.381Z,3.42
2023-05-11T01:42:51.302Z,3.65
2023-05-11T01:45:21.026Z,3.53
2023-05-11T01:47:52.676Z,3.35
2023-05-11T01:50:24.539Z,3.97
2023-05-11T01:52:54.554Z,3.35
2023-05-11T01:55:25.089Z,2.90
2023-05-11T01:57:55.929Z,3.28
2023-05-11T02:00:26.574Z,5.13
2023-05-11T02:02:58.055Z,3.78
2023-05-11T02:05:28.369Z,3.17
2023-05-11T02:07:58.021Z,2.78
2023-05-11T02:10:28.590Z,3.05
2023-05-11T02:12:57.794Z,2.72
2023-05-11T02:15:27.848Z,2.50
2023-05-11T02:17:58.571Z,2.85
2023-05-11T02:20:28.192Z,2.92
2023-05-11T02:22:57.914Z,3.17
2023-05-11T02:25:27.054Z,2.92
2023-05-11T02:27:55.939Z,3.13
2023-05-11T02:30:25.525Z,3.00
2023-05-11T02:32:56.624Z,3.05
2023-05-11T02:35:30.231Z,2.90
2023-05-11T02:38:01.685Z,3.10
2023-05-11T02:40:33.508Z,2.88
2023-05-11T02:43:09.001Z,2.80
2023-05-11T02:45:38.709Z,3.13
2023-05-11T02:48:11.225Z,3.65
2023-05-11T02:50:43.203Z,3.50
2023-05-11T02:53:16.564Z,3.22
2023-05-11T02:55:45.252Z,3.05
2023-05-11T02:58:13.678Z,3.22
2023-05-11T03:00:42.135Z,3.53
2023-05-11T03:03:10.548Z,3.90
2023-05-11T03:05:40.543Z,3.05
2023-05-11T03:08:09.285Z,3.60
2023-05-11T03:10:38.008Z,2.90
2023-05-11T03:13:08.256Z,3.03
2023-05-11T03:15:38.336Z,3.83
2023-05-11T03:18:08.445Z,3.30
2023-05-11T03:20:39.293Z,3.60
2023-05-11T03:23:10.370Z,3.65
2023-05-11T03:25:39.648Z,3.15
2023-05-11T03:28:10.615Z,3.58
2023-05-11T03:30:40.962Z,2.75
2023-05-11T03:33:09.331Z,3.25
2023-05-11T03:35:38.844Z,2.88
2023-05-11T03:38:16.545Z,2.88
2023-05-11T03:40:46.155Z,2.90
2023-05-11T03:43:17.706Z,3.28
2023-05-11T03:45:47.420Z,3.25
2023-05-11T03:48:17.214Z,3.25
2023-05-11T03:50:47.429Z,2.85
2023-05-11T03:53:17.668Z,2.95
2023-05-11T03:55:46.385Z,2.97
2023-05-11T03:58:14.881Z,2.40
2023-05-11T04:00:44.181Z,4.03
2023-05-11T04:03:13.221Z,3.05
2023-05-11T04:05:42.540Z,2.88
2023-05-11T04:08:11.203Z,2.92
2023-05-11T04:10:42.028Z,2.67
2023-05-11T04:13:10.258Z,3.63
2023-05-11T04:15:38.835Z,2.63
2023-05-11T04:18:07.008Z,2.67
2023-05-11T04:20:35.398Z,2.58
2023-05-11T04:23:04.227Z,2.67
2023-05-11T04:25:32.686Z,2.25
2023-05-11T04:28:02.350Z,2.88
2023-05-11T04:30:30.559Z,3.35
2023-05-11T04:32:59.204Z,2.65
2023-05-11T04:35:27.486Z,3.10
2023-05-11T04:37:59.547Z,3.33
2023-05-11T04:40:28.035Z,2.95
2023-05-11T04:42:57.695Z,3.20
2023-05-11T04:45:28.263Z,3.00
2023-05-11T04:47:56.497Z,2.80
2023-05-11T04:50:24.770Z,2.75
2023-05-11T04:52:53.301Z,2.83
2023-05-11T04:55:21.683Z,2.60
2023-05-11T04:57:50.260Z,2.75
2023-05-11T05:00:19.273Z,3.17
2023-05-11T05:02:50.889Z,2.08
2023-05-11T05:05:19.592Z,2.95
2023-05-11T05:07:48.101Z,2.50
2023-05-11T05:10:16.540Z,3.05
2023-05-11T05:12:46.016Z,2.63
2023-05-11T05:15:14.809Z,2.60
2023-05-11T05:17:43.374Z,2.38
2023-05-11T05:20:13.440Z,2.28
2023-05-11T05:22:41.884Z,2.40
2023-05-11T05:25:11.871Z,3.50
2023-05-11T05:27:39.894Z,2.88
2023-05-11T05:30:09.108Z,2.40
2023-05-11T05:32:37.780Z,2.10
2023-05-11T05:35:07.024Z,2.13
2023-05-11T05:37:37.865Z,2.80
2023-05-11T05:40:07.852Z,2.55
2023-05-11T05:42:36.327Z,2.47
2023-05-11T05:45:04.826Z,2.42
2023-05-11T05:47:33.432Z,2.58
2023-05-11T05:50:01.486Z,2.35
2023-05-11T05:52:30.769Z,2.80
2023-05-11T05:55:00.922Z,2.47
2023-05-11T05:57:30.805Z,2.65
2023-05-11T05:59:59.250Z,2.75
2023-05-11T06:02:27.413Z,2.40
2023-05-11T06:04:56.098Z,2.92
2023-05-11T06:07:24.316Z,2.50
2023-05-11T06:09:52.846Z,2.63
2023-05-11T06:12:22.357Z,2.85
2023-05-11T06:14:51.124Z,2.97
2023-05-11T06:17:20.540Z,2.40
2023-05-11T06:19:50.409Z,2.50
2023-05-11T06:22:18.634Z,3.13
2023-05-11T06:24:46.984Z,2.88
2023-05-11T06:27:17.935Z,2.58
2023-05-11T06:29:48.483Z,2.90
2023-05-11T06:32:16.904Z,2.78
2023-05-11T06:34:45.302Z,2.92
2023-05-11T06:37:16.293Z,2.75
2023-05-11T06:39:44.903Z,2.78
2023-05-11T06:42:13.147Z,3.08
2023-05-11T06:44:41.691Z,2.15
2023-05-11T06:47:12.223Z,2.85
2023-05-11T06:49:41.546Z,1.90
2023-05-11T06:52:10.072Z,2.00
2023-05-11T06:54:38.185Z,2.38
2023-05-11T06:57:07.808Z,1.90
2023-05-11T06:59:36.049Z,1.83
2023-05-11T07:02:04.178Z,1.98
2023-05-11T07:04:34.042Z,2.15
2023-05-11T07:07:02.714Z,2.95
2023-05-11T07:09:31.477Z,1.77
2023-05-11T07:11:59.803Z,2.20
2023-05-11T07:14:27.918Z,1.83
2023-05-11T07:16:56.295Z,2.05
2023-05-11T07:19:25.360Z,2.47
2023-05-11T07:21:55.704Z,2.65
2023-05-11T07:24:24.133Z,2.53
2023-05-11T07:26:52.449Z,2.30
2023-05-11T07:29:21.284Z,2.05
2023-05-11T07:31:49.576Z,2.22
2023-05-11T07:34:18.045Z,2.17
2023-05-11T07:36:46.913Z,1.88
2023-05-11T07:39:18.431Z,2.35
2023-05-11T07:41:47.524Z,2.20
2023-05-11T07:44:16.026Z,1.98
2023-05-11T07:46:44.233Z,2.25
2023-05-11T07:49:17.284Z,2.38
2023-05-11T07:51:50.147Z,1.98
2023-05-11T07:54:21.775Z,2.83
2023-05-11T07:56:50.209Z,2.45
2023-05-11T07:59:18.450Z,3.13
2023-05-11T08:01:46.825Z,2.38
2023-05-11T08:04:15.223Z,2.10
2023-05-11T08:06:43.906Z,2.30
2023-05-11T08:09:12.746Z,2.10
2023-05-11T08:11:42.466Z,2.53
2023-05-11T08:14:10.946Z,2.30
2023-05-11T08:16:39.157Z,3.17
2023-05-11T08:19:08.969Z,2.80
2023-05-11T08:21:37.976Z,2.35
2023-05-11T08:24:06.757Z,2.58
2023-05-11T08:26:34.954Z,3.05
2023-05-11T08:29:21.550Z,2.83
2023-05-11T08:31:51.002Z,2.97
2023-05-11T08:34:20.318Z,2.45
2023-05-11T08:36:49.122Z,3.00
2023-05-11T08:39:32.885Z,2.50
2023-05-11T08:42:07.677Z,2.65
2023-05-11T08:44:40.214Z,2.63
2023-05-11T08:49:41.954Z,2.92
2023-05-11T08:52:11.284Z,2.40
2023-05-11T08:54:40.377Z,2.85
2023-05-11T08:57:09.141Z,3.63
2023-05-11T08:59:39.065Z,3.03
2023-05-11T09:02:08.317Z,2.45
2023-05-11T09:04:38.456Z,2.90
2023-05-11T09:07:07.309Z,3.10
2023-05-11T09:09:35.862Z,2.95
2023-05-11T09:12:04.119Z,2.95
2023-05-11T09:14:32.604Z,3.15
2023-05-11T09:17:03.305Z,3.40
2023-05-11T09:19:32.080Z,2.85
2023-05-11T09:22:02.305Z,3.33
2023-05-11T09:24:31.219Z,3.30
2023-05-11T09:27:09.490Z,3.53
2023-05-11T09:29:37.694Z,3.17
2023-05-11T09:32:11.379Z,2.88
2023-05-11T09:34:43.156Z,2.95
2023-05-11T09:37:19.581Z,3.28
2023-05-11T09:42:22.656Z,3.35
2023-05-11T09:44:50.910Z,3.70
2023-05-11T09:47:22.639Z,3.35
2023-05-11T09:49:51.580Z,3.40
2023-05-11T09:52:21.656Z,3.33
2023-05-11T09:54:53.044Z,3.35
2023-05-11T09:57:26.404Z,4.05
2023-05-11T09:59:55.948Z,3.65
2023-05-11T10:02:27.228Z,3.45
2023-05-11T10:04:57.984Z,3.67
2023-05-11T10:07:31.600Z,3.78
2023-05-11T10:10:03.418Z,3.25
2023-05-11T10:12:33.814Z,3.85
2023-05-11T10:15:04.468Z,3.92
2023-05-11T10:17:35.536Z,3.83
2023-05-11T10:20:05.795Z,3.38
2023-05-11T10:22:34.352Z,3.20
2023-05-11T10:25:06.392Z,4.45
2023-05-11T10:27:35.114Z,3.45
2023-05-11T10:30:04.602Z,3.95
2023-05-11T10:32:39.593Z,3.63
2023-05-11T10:35:08.730Z,4.55
2023-05-11T10:37:37.307Z,3.70
2023-05-11T10:40:07.845Z,3.45
2023-05-11T10:43:12.803Z,4.45
2023-05-11T10:49:02.021Z,4.15
2023-05-11T10:51:48.650Z,3.72
2023-05-11T10:54:31.427Z,3.17
2023-05-11T10:57:14.865Z,2.92
2023-05-11T11:00:21.671Z,2.90
2023-05-11T11:02:50.570Z,3.92
2023-05-11T11:05:36.011Z,4.82
2023-05-11T11:08:05.699Z,3.95
2023-05-11T11:10:37.480Z,3.92
2023-05-11T11:13:08.134Z,3.65
2023-05-11T11:16:11.814Z,3.67
2023-05-11T11:21:15.671Z,2.97
2023-05-11T11:23:51.139Z,3.35
2023-05-11T11:26:57.730Z,4.40
2023-05-11T11:29:25.897Z,3.90
2023-05-11T11:31:54.687Z,3.45
2023-05-11T11:34:39.872Z,3.53
2023-05-11T11:37:11.180Z,3.10
2023-05-11T11:40:09.423Z,3.05
2023-05-11T11:42:44.739Z,2.85
2023-05-11T11:45:32.034Z,3.00
2023-05-11T11:48:13.732Z,3.00
2023-05-11T11:50:44.468Z,3.10
2023-05-11T11:54:07.825Z,4.00
2023-05-11T11:56:44.039Z,3.20
2023-05-11T11:59:15.425Z,3.42
2023-05-11T12:01:45.623Z,3.58
2023-05-11T12:04:52.631Z,3.17
2023-05-11T12:07:22.964Z,3.20
2023-05-11T12:09:53.806Z,3.42
2023-05-11T12:12:23.293Z,4.03
2023-05-11T12:14:52.176Z,3.30
2023-05-11T12:17:33.153Z,3.75
2023-05-11T12:20:15.936Z,3.35
2023-05-11T12:22:45.048Z,3.47
2023-05-11T12:25:18.204Z,3.20
2023-05-11T12:27:51.552Z,4.07
2023-05-11T12:30:24.763Z,3.42
2023-05-11T12:32:57.486Z,3.90
2023-05-11T12:35:28.264Z,4.30
2023-05-11T12:37:58.419Z,2.92
2023-05-11T12:40:28.742Z,3.58
2023-05-11T12:42:58.314Z,3.72
2023-05-11T12:45:28.856Z,3.22
2023-05-11T12:47:59.057Z,3.97
2023-05-11T12:50:27.658Z,3.90
2023-05-11T12:52:55.945Z,4.82
2023-05-11T12:55:33.288Z,3.60
2023-05-11T12:58:13.653Z,4.10
2023-05-11T13:00:54.626Z,3.20
2023-05-11T13:03:24.472Z,4.10
2023-05-11T13:05:55.006Z,3.60
2023-05-11T13:08:23.642Z,3.30
2023-05-11T13:10:53.674Z,3.15
2023-05-11T13:13:29.762Z,3.38
2023-05-11T13:15:58.181Z,2.92
2023-05-11T13:18:27.410Z,3.10
2023-05-11T13:21:07.744Z,3.20
2023-05-11T13:23:37.232Z,2.95
2023-05-11T13:26:08.082Z,2.80
2023-05-11T13:28:36.968Z,3.30
2023-05-11T13:31:06.184Z,3.63
2023-05-11T13:33:35.103Z,3.63
2023-05-11T13:36:04.502Z,3.03
2023-05-11T13:38:32.991Z,3.17
2023-05-11T13:41:01.236Z,2.90
2023-05-11T13:43:32.497Z,3.22
2023-05-11T13:46:01.382Z,2.60
2023-05-11T13:48:29.957Z,3.20
2023-05-11T13:50:58.558Z,2.60
2023-05-11T13:53:27.462Z,2.95
2023-05-11T13:55:56.034Z,3.58
2023-05-11T13:58:24.792Z,3.08
2023-05-11T14:01:07.225Z,3.00
2023-05-11T14:03:36.676Z,4.35
2023-05-11T14:06:05.742Z,3.80
2023-05-11T14:08:36.345Z,3.10
2023-05-11T14:11:05.064Z,3.15
2023-05-11T14:13:33.886Z,3.60
2023-05-11T14:16:03.791Z,2.85
2023-05-11T14:18:32.591Z,3.55
2023-05-11T14:21:01.418Z,3.60
2023-05-11T14:23:30.069Z,4.20
2023-05-11T14:25:59.727Z,3.10
2023-05-11T14:28:28.524Z,2.85
2023-05-11T14:30:57.728Z,3.40
2023-05-11T14:33:28.637Z,3.60
2023-05-11T14:35:57.511Z,3.22
2023-05-11T14:38:26.129Z,3.05
2023-05-11T14:40:55.292Z,3.47
2023-05-11T14:43:24.640Z,3.17
2023-05-11T14:45:53.673Z,3.17
2023-05-11T14:48:23.946Z,2.67
2023-05-11T14:50:54.263Z,2.92
2023-05-11T14:53:23.485Z,2.90
2023-05-11T14:55:55.637Z,2.72
2023-05-11T14:58:24.963Z,2.55
2023-05-11T15:00:53.593Z,2.95
2023-05-11T15:03:22.342Z,3.10
2023-05-11T15:05:51.740Z,3.10
2023-05-11T15:08:29.562Z,3.10
2023-05-11T15:10:58.525Z,3.30
2023-05-11T15:13:26.948Z,2.78
2023-05-11T15:15:56.873Z,3.08
2023-05-11T15:18:25.545Z,2.83
2023-05-11T15:20:54.431Z,3.47
2023-05-11T15:23:25.133Z,3.15
2023-05-11T15:25:54.453Z,2.72
2023-05-11T15:28:22.842Z,3.08
2023-05-11T15:30:51.470Z,3.20
2023-05-11T15:33:20.566Z,3.13
2023-05-11T15:35:50.350Z,3.00
2023-05-11T15:38:19.376Z,2.28
2023-05-11T15:40:49.436Z,3.50
2023-05-11T15:43:19.837Z,3.08
2023-05-11T15:45:49.868Z,3.00
2023-05-11T15:48:19.563Z,3.10
2023-05-11T15:50:48.309Z,2.78
2023-05-11T15:53:18.637Z,2.72
2023-05-11T15:55:51.315Z,3.53
2023-05-11T15:58:20.858Z,4.13
2023-05-11T16:00:50.293Z,3.47
2023-05-11T16:03:20.288Z,4.57
2023-05-11T16:05:49.206Z,3.55
2023-05-11T16:08:19.207Z,1.98
2023-05-11T16:10:50.145Z,1.85
2023-05-11T16:13:18.916Z,1.98
2023-05-11T16:15:49.469Z,1.92
2023-05-11T16:18:20.064Z,2.08
2023-05-11T16:20:49.195Z,2.00
2023-05-11T16:23:18.318Z,1.75
2023-05-11T16:25:47.929Z,1.83
2023-05-11T16:28:18.334Z,1.45
2023-05-11T16:30:47.112Z,1.23
2023-05-11T16:33:16.443Z,1.10
2023-05-11T16:35:45.328Z,1.42
2023-05-11T16:38:18.160Z,1.20
2023-05-11T16:40:48.560Z,0.82
2023-05-11T16:43:18.804Z,1.08
2023-05-11T16:45:47.365Z,1.20
2023-05-11T16:48:17.592Z,0.70
2023-05-11T16:50:48.245Z,0.40
2023-05-11T16:53:18.748Z,1.08
2023-05-11T16:55:50.004Z,2.08
2023-05-11T16:58:20.104Z,1.60
2023-05-11T17:00:49.675Z,2.03
2023-05-11T17:03:20.715Z,2.30
2023-05-11T17:05:50.008Z,1.90
2023-05-11T17:08:19.052Z,1.77
2023-05-11T17:10:47.865Z,1.60
2023-05-11T17:13:16.408Z,1.10
2023-05-11T17:15:48.643Z,1.63
2023-05-11T17:18:17.623Z,1.38
2023-05-11T17:20:47.228Z,1.67
2023-05-11T17:23:15.493Z,1.20
2023-05-11T17:25:44.520Z,1.42
2023-05-11T17:28:13.260Z,1.30
2023-05-11T17:33:17.538Z,1.30
2023-05-11T17:35:47.772Z,1.35
2023-05-11T17:38:16.843Z,1.23
2023-05-11T17:40:46.103Z,1.50
2023-05-11T17:43:14.551Z,1.83
2023-05-11T17:45:44.249Z,0.93
2023-05-11T17:48:13.919Z,1.00
2023-05-11T17:50:44.705Z,1.20
2023-05-11T17:53:13.375Z,1.33
2023-05-11T17:55:42.451Z,1.20
2023-05-11T17:58:11.091Z,1.30
2023-05-11T18:00:39.765Z,2.03
2023-05-11T18:03:08.155Z,1.50
2023-05-11T18:05:48.570Z,1.20
2023-05-11T18:08:21.637Z,1.15
2023-05-11T18:10:50.284Z,1.35
2023-05-11T18:13:19.199Z,1.27
2023-05-11T18:15:49.539Z,1.50
2023-05-11T18:18:18.126Z,1.83
2023-05-11T18:20:46.671Z,1.48
2023-05-11T18:23:15.301Z,1.20
2023-05-11T18:25:45.617Z,1.40
2023-05-11T18:28:14.267Z,1.25
2023-05-11T18:30:43.181Z,1.50
2023-05-11T18:33:12.148Z,1.30
2023-05-11T18:35:42.019Z,1.73
2023-05-11T18:38:10.924Z,1.70
2023-05-11T18:40:40.232Z,1.80
2023-05-11T18:43:11.242Z,1.80
2023-05-11T18:45:41.443Z,2.03
2023-05-11T18:48:10.050Z,1.73
2023-05-11T18:50:40.274Z,2.00
2023-05-11T18:53:08.693Z,1.55
2023-05-11T18:55:51.818Z,1.85
2023-05-11T18:58:23.864Z,2.00
2023-05-11T19:00:53.721Z,1.80
2023-05-11T19:03:23.563Z,2.13
2023-05-11T19:05:52.731Z,2.17
2023-05-11T19:08:21.207Z,1.92
2023-05-11T19:10:49.789Z,1.92
2023-05-11T19:13:18.398Z,2.08
2023-05-11T19:15:48.593Z,1.60
2023-05-11T19:18:17.525Z,1.58
2023-05-11T19:20:46.723Z,2.70
2023-05-11T19:23:15.045Z,2.97
2023-05-11T19:25:43.220Z,2.13
2023-05-11T19:28:11.673Z,2.35
2023-05-11T19:30:40.180Z,2.05
2023-05-11T19:33:10.042Z,2.10
2023-05-11T19:35:40.954Z,2.28
2023-05-11T19:38:09.365Z,2.80
2023-05-11T19:40:45.840Z,2.38
2023-05-11T19:43:14.766Z,2.70
2023-05-11T19:45:45.549Z,2.58
2023-05-11T19:48:15.605Z,2.55
2023-05-11T19:50:44.478Z,3.45
2023-05-11T19:53:15.897Z,2.10
2023-05-11T19:55:46.509Z,2.10
2023-05-11T19:58:16.274Z,2.17
2023-05-11T20:00:44.744Z,2.72
2023-05-11T20:03:17.216Z,2.83
2023-05-11T20:05:45.857Z,3.05
2023-05-11T20:08:14.701Z,4.35
2023-05-11T20:10:43.126Z,3.83
2023-05-11T20:13:11.788Z,3.38
2023-05-11T20:15:40.365Z,3.33
2023-05-11T20:18:09.733Z,3.20
2023-05-11T20:20:39.592Z,3.42
2023-05-11T20:23:08.472Z,3.72
2023-05-11T20:25:40.293Z,3.40
2023-05-11T20:28:08.930Z,3.20
2023-05-11T20:30:38.023Z,4.40
2023-05-11T20:35:41.649Z,3.70
2023-05-11T20:38:10.322Z,4.63
2023-05-11T20:40:39.179Z,3.92
2023-05-11T20:43:08.505Z,3.70
2023-05-11T20:45:37.260Z,3.45
2023-05-11T20:48:06.041Z,3.50
2023-05-11T20:50:35.003Z,3.30
2023-05-11T20:53:05.628Z,3.50
2023-05-11T20:55:34.188Z,4.53
2023-05-11T20:58:04.709Z,3.50
2023-05-11T21:00:33.243Z,4.13
2023-05-11T21:03:04.715Z,4.15
2023-05-11T21:05:45.904Z,3.33
2023-05-11T21:08:16.228Z,3.08
2023-05-11T21:10:46.669Z,2.97
2023-05-11T21:13:14.777Z,3.30
2023-05-11T21:15:43.334Z,3.35
2023-05-11T21:18:11.985Z,3.80
2023-05-11T21:20:40.805Z,4.03
2023-05-11T21:23:09.712Z,3.70
2023-05-11T21:25:39.747Z,4.10
2023-05-11T21:28:09.123Z,3.83
2023-05-11T21:30:37.387Z,4.18
2023-05-11T21:33:05.984Z,3.85
2023-05-11T21:35:34.344Z,3.30
2023-05-11T21:38:03.304Z,3.35
2023-05-11T21:40:31.853Z,3.33
2023-05-11T21:43:01.491Z,4.13
2023-05-11T21:45:30.024Z,3.88
2023-05-11T21:47:58.767Z,3.63
2023-05-11T21:50:27.255Z,3.38
2023-05-11T21:52:55.546Z,3.80
2023-05-11T21:55:24.962Z,3.53
2023-05-11T21:57:54.937Z,4.22
2023-05-11T22:00:26.702Z,3.80
2023-05-11T22:02:55.661Z,3.90
2023-05-11T22:05:23.908Z,3.75
2023-05-11T22:07:53.969Z,3.90
2023-05-11T22:10:25.901Z,3.78
2023-05-11T22:12:54.419Z,3.50
2023-05-11T22:15:23.016Z,3.78
2023-05-11T22:17:53.076Z,3.83
2023-05-11T22:20:21.644Z,3.35
2023-05-11T22:22:49.874Z,3.35
2023-05-11T22:25:18.542Z,3.53
2023-05-11T22:27:47.415Z,3.25
2023-05-11T22:30:16.381Z,3.72
2023-05-11T22:32:45.143Z,4.00
2023-05-11T22:35:15.314Z,3.97
2023-05-11T22:37:43.539Z,3.45
2023-05-11T22:40:12.670Z,3.33
2023-05-11T22:42:41.916Z,3.90
2023-05-11T22:45:11.423Z,3.70
2023-05-11T22:47:40.167Z,3.65
2023-05-11T22:50:12.012Z,4.05
2023-05-11T22:52:41.822Z,3.45
2023-05-11T22:55:11.041Z,3.70
2023-05-11T22:57:39.510Z,3.65
2023-05-11T23:00:10.851Z,3.78
2023-05-11T23:02:39.752Z,3.17
2023-05-11T23:05:08.904Z,4.10
2023-05-11T23:07:37.332Z,3.70
2023-05-11T23:10:07.754Z,3.50
2023-05-11T23:12:35.930Z,3.30
2023-05-11T23:15:04.228Z,4.13
2023-05-11T23:17:32.784Z,3.67
2023-05-11T23:20:01.095Z,3.50
2023-05-11T23:22:29.532Z,3.13
2023-05-11T23:24:58.172Z,4.00
2023-05-11T23:27:28.815Z,3.83
2023-05-11T23:29:57.483Z,3.63
2023-05-11T23:32:25.832Z,3.60
2023-05-11T23:34:53.844Z,3.53
2023-05-11T23:37:22.851Z,4.43
2023-05-11T23:39:51.206Z,3.28
2023-05-11T23:42:19.929Z,4.25
2023-05-11T23:44:50.105Z,3.33
2023-05-11T23:47:18.392Z,3.60
2023-05-11T23:49:46.715Z,3.67
2023-05-11T23:52:15.090Z,3.33
2023-05-11T23:54:43.667Z,3.63
2023-05-11T23:57:12.179Z,3.70
2023-05-11T23:59:40.423Z,3.67
